sensor_id;sensor_type;location;lat;lon;timestamp;P1;durP1;ratioP1;P2;durP2;ratioP2
10659;SDS011;5378;53.206;13.316;2023-02-21T00:03:04;0.77;;;0.30;;
10659;SDS011;5378;53.206;13.316;2023-02-21T00:06:09;0.90;;;0.30;;
10659;SDS011;5378;53.206;13.316;2023-02-21T00:09:13;0.57;;;0.20;;
10659;SDS011;5378;53.206;13.316;2023-02-21T00:12:18;0.50;;;0.20;;
10659;SDS011;5378;53.206;13.316;2023-02-21T00:15:24;0.70;;;0.30;;
10659;SDS011;5378;53.206;13.316;2023-02-21T00:18:32;0.50;;;0.20;;
10659;SDS011;5378;53.206;13.316;2023-02-21T00:21:37;0.50;;;0.20;;
10659;SDS011;5378;53.206;13.316;2023-02-21T00:24:41;0.70;;;0.30;;
10659;SDS011;5378;53.206;13.316;2023-02-21T00:27:46;0.60;;;0.20;;
10659;SDS011;5378;53.206;13.316;2023-02-21T00:30:52;0.50;;;0.20;;
10659;SDS011;5378;53.206;13.316;2023-02-21T00:33:57;0.60;;;0.20;;
10659;SDS011;5378;53.206;13.316;2023-02-21T00:37:02;0.50;;;0.20;;
10659;SDS011;5378;53.206;13.316;2023-02-21T00:40:06;0.50;;;0.20;;
10659;SDS011;5378;53.206;13.316;2023-02-21T00:43:14;0.50;;;0.20;;
10659;SDS011;5378;53.206;13.316;2023-02-21T00:46:22;0.70;;;0.30;;
10659;SDS011;5378;53.206;13.316;2023-02-21T00:49:26;0.50;;;0.20;;
10659;SDS011;5378;53.206;13.316;2023-02-21T00:52:31;0.50;;;0.20;;
10659;SDS011;5378;53.206;13.316;2023-02-21T00:55:36;0.50;;;0.30;;
10659;SDS011;5378;53.206;13.316;2023-02-21T00:58:41;0.60;;;0.23;;
10659;SDS011;5378;53.206;13.316;2023-02-21T01:01:47;0.70;;;0.30;;
10659;SDS011;5378;53.206;13.316;2023-02-21T01:04:51;0.60;;;0.30;;
10659;SDS011;5378;53.206;13.316;2023-02-21T01:07:56;0.50;;;0.20;;
10659;SDS011;5378;53.206;13.316;2023-02-21T01:11:01;0.50;;;0.20;;
10659;SDS011;5378;53.206;13.316;2023-02-21T01:14:06;0.50;;;0.20;;
10659;SDS011;5378;53.206;13.316;2023-02-21T01:17:14;0.50;;;0.30;;
10659;SDS011;5378;53.206;13.316;2023-02-21T01:20:18;0.50;;;0.30;;
10659;SDS011;5378;53.206;13.316;2023-02-21T01:23:23;0.60;;;0.23;;
10659;SDS011;5378;53.206;13.316;2023-02-21T01:26:28;0.90;;;0.27;;
10659;SDS011;5378;53.206;13.316;2023-02-21T01:29:32;0.80;;;0.40;;
10659;SDS011;5378;53.206;13.316;2023-02-21T01:32:39;0.50;;;0.20;;
10659;SDS011;5378;53.206;13.316;2023-02-21T01:35:44;0.93;;;0.30;;
10659;SDS011;5378;53.206;13.316;2023-02-21T01:38:48;0.60;;;0.30;;
10659;SDS011;5378;53.206;13.316;2023-02-21T01:41:54;1.57;;;0.33;;
10659;SDS011;5378;53.206;13.316;2023-02-21T01:45:17;0.60;;;0.30;;
10659;SDS011;5378;53.206;13.316;2023-02-21T01:48:51;1.80;;;0.50;;
10659;SDS011;5378;53.206;13.316;2023-02-21T01:51:57;0.60;;;0.20;;
10659;SDS011;5378;53.206;13.316;2023-02-21T01:55:04;0.50;;;0.20;;
10659;SDS011;5378;53.206;13.316;2023-02-21T01:58:09;0.50;;;0.20;;
10659;SDS011;5378;53.206;13.316;2023-02-21T02:01:17;0.60;;;0.30;;
10659;SDS011;5378;53.206;13.316;2023-02-21T02:04:29;0.70;;;0.20;;
10659;SDS011;5378;53.206;13.316;2023-02-21T02:07:35;0.90;;;0.30;;
10659;SDS011;5378;53.206;13.316;2023-02-21T02:10:40;0.60;;;0.27;;
10659;SDS011;5378;53.206;13.316;2023-02-21T02:13:51;1.60;;;0.40;;
10659;SDS011;5378;53.206;13.316;2023-02-21T02:16:51;5.00;;;0.37;;
10659;SDS011;5378;53.206;13.316;2023-02-21T02:20:02;0.60;;;0.20;;
10659;SDS011;5378;53.206;13.316;2023-02-21T02:23:28;0.60;;;0.30;;
10659;SDS011;5378;53.206;13.316;2023-02-21T02:29:57;0.60;;;0.30;;
10659;SDS011;5378;53.206;13.316;2023-02-21T02:33:02;1.63;;;0.30;;
10659;SDS011;5378;53.206;13.316;2023-02-21T02:36:17;1.33;;;0.50;;
10659;SDS011;5378;53.206;13.316;2023-02-21T02:39:12;0.90;;;0.80;;
10659;SDS011;5378;53.206;13.316;2023-02-21T02:42:08;4.23;;;0.70;;
10659;SDS011;5378;53.206;13.316;2023-02-21T02:45:02;8.10;;;0.77;;
10659;SDS011;5378;53.206;13.316;2023-02-21T02:47:56;4.50;;;0.43;;
10659;SDS011;5378;53.206;13.316;2023-02-21T02:50:48;1.43;;;0.70;;
10659;SDS011;5378;53.206;13.316;2023-02-21T02:53:38;2.17;;;0.83;;
10659;SDS011;5378;53.206;13.316;2023-02-21T02:56:25;0.70;;;0.53;;
10659;SDS011;5378;53.206;13.316;2023-02-21T02:59:15;2.30;;;0.53;;
10659;SDS011;5378;53.206;13.316;2023-02-21T03:02:17;3.20;;;0.53;;
10659;SDS011;5378;53.206;13.316;2023-02-21T03:05:23;0.87;;;0.30;;
10659;SDS011;5378;53.206;13.316;2023-02-21T03:08:25;0.60;;;0.30;;
10659;SDS011;5378;53.206;13.316;2023-02-21T03:11:20;3.57;;;0.40;;
10659;SDS011;5378;53.206;13.316;2023-02-21T03:14:12;1.20;;;0.50;;
10659;SDS011;5378;53.206;13.316;2023-02-21T03:17:02;1.57;;;0.50;;
10659;SDS011;5378;53.206;13.316;2023-02-21T03:19:53;1.33;;;0.40;;
10659;SDS011;5378;53.206;13.316;2023-02-21T03:22:43;3.00;;;0.80;;
10659;SDS011;5378;53.206;13.316;2023-02-21T03:25:31;1.40;;;0.67;;
10659;SDS011;5378;53.206;13.316;2023-02-21T03:28:22;0.87;;;0.57;;
10659;SDS011;5378;53.206;13.316;2023-02-21T03:31:11;1.00;;;0.47;;
10659;SDS011;5378;53.206;13.316;2023-02-21T03:34:02;0.80;;;0.40;;
10659;SDS011;5378;53.206;13.316;2023-02-21T03:36:49;1.67;;;0.60;;
10659;SDS011;5378;53.206;13.316;2023-02-21T03:39:36;7.10;;;0.73;;
10659;SDS011;5378;53.206;13.316;2023-02-21T03:42:24;1.23;;;0.50;;
10659;SDS011;5378;53.206;13.316;2023-02-21T03:45:13;2.50;;;0.80;;
10659;SDS011;5378;53.206;13.316;2023-02-21T03:48:02;4.93;;;0.60;;
10659;SDS011;5378;53.206;13.316;2023-02-21T03:50:52;0.77;;;0.40;;
10659;SDS011;5378;53.206;13.316;2023-02-21T03:53:41;0.97;;;0.40;;
10659;SDS011;5378;53.206;13.316;2023-02-21T03:56:29;0.90;;;0.53;;
10659;SDS011;5378;53.206;13.316;2023-02-21T03:59:35;0.77;;;0.67;;
10659;SDS011;5378;53.206;13.316;2023-02-21T04:02:24;1.53;;;0.50;;
10659;SDS011;5378;53.206;13.316;2023-02-21T04:05:11;1.63;;;0.50;;
10659;SDS011;5378;53.206;13.316;2023-02-21T04:07:58;0.80;;;0.40;;
10659;SDS011;5378;53.206;13.316;2023-02-21T04:10:45;1.27;;;0.30;;
10659;SDS011;5378;53.206;13.316;2023-02-21T04:13:38;3.60;;;0.63;;
10659;SDS011;5378;53.206;13.316;2023-02-21T04:16:25;1.27;;;0.80;;
10659;SDS011;5378;53.206;13.316;2023-02-21T04:19:14;2.53;;;0.57;;
10659;SDS011;5378;53.206;13.316;2023-02-21T04:22:02;1.10;;;0.40;;
10659;SDS011;5378;53.206;13.316;2023-02-21T04:24:49;1.43;;;0.57;;
10659;SDS011;5378;53.206;13.316;2023-02-21T04:27:37;0.70;;;0.40;;
10659;SDS011;5378;53.206;13.316;2023-02-21T04:30:24;1.47;;;0.80;;
10659;SDS011;5378;53.206;13.316;2023-02-21T04:33:12;8.23;;;0.70;;
10659;SDS011;5378;53.206;13.316;2023-02-21T04:36:00;4.70;;;0.70;;
10659;SDS011;5378;53.206;13.316;2023-02-21T04:38:56;5.40;;;0.60;;
10659;SDS011;5378;53.206;13.316;2023-02-21T04:41:43;1.10;;;0.50;;
10659;SDS011;5378;53.206;13.316;2023-02-21T04:44:30;2.00;;;0.60;;
10659;SDS011;5378;53.206;13.316;2023-02-21T04:47:18;3.13;;;0.40;;
10659;SDS011;5378;53.206;13.316;2023-02-21T04:50:05;3.30;;;0.77;;
10659;SDS011;5378;53.206;13.316;2023-02-21T04:52:54;1.07;;;0.50;;
10659;SDS011;5378;53.206;13.316;2023-02-21T04:55:41;4.33;;;0.80;;
10659;SDS011;5378;53.206;13.316;2023-02-21T04:58:28;2.13;;;0.63;;
10659;SDS011;5378;53.206;13.316;2023-02-21T05:01:25;6.50;;;0.97;;
10659;SDS011;5378;53.206;13.316;2023-02-21T05:04:14;0.70;;;0.50;;
10659;SDS011;5378;53.206;13.316;2023-02-21T05:07:02;2.93;;;0.40;;
10659;SDS011;5378;53.206;13.316;2023-02-21T05:09:51;11.00;;;1.13;;
10659;SDS011;5378;53.206;13.316;2023-02-21T05:12:38;2.60;;;0.83;;
10659;SDS011;5378;53.206;13.316;2023-02-21T05:15:25;6.00;;;0.70;;
10659;SDS011;5378;53.206;13.316;2023-02-21T05:18:12;6.50;;;0.90;;
10659;SDS011;5378;53.206;13.316;2023-02-21T05:20:59;1.23;;;0.40;;
10659;SDS011;5378;53.206;13.316;2023-02-21T05:23:47;0.83;;;0.30;;
10659;SDS011;5378;53.206;13.316;2023-02-21T05:26:42;2.90;;;1.23;;
10659;SDS011;5378;53.206;13.316;2023-02-21T05:29:29;2.90;;;0.60;;
10659;SDS011;5378;53.206;13.316;2023-02-21T05:32:16;5.50;;;0.80;;
10659;SDS011;5378;53.206;13.316;2023-02-21T05:35:06;2.80;;;0.97;;
10659;SDS011;5378;53.206;13.316;2023-02-21T05:37:53;8.33;;;0.80;;
10659;SDS011;5378;53.206;13.316;2023-02-21T05:40:41;6.57;;;0.73;;
10659;SDS011;5378;53.206;13.316;2023-02-21T05:43:29;5.50;;;0.43;;
10659;SDS011;5378;53.206;13.316;2023-02-21T05:46:19;3.47;;;0.77;;
10659;SDS011;5378;53.206;13.316;2023-02-21T05:49:09;2.60;;;0.57;;
10659;SDS011;5378;53.206;13.316;2023-02-21T05:51:56;4.03;;;0.63;;
10659;SDS011;5378;53.206;13.316;2023-02-21T05:54:43;3.67;;;0.80;;
10659;SDS011;5378;53.206;13.316;2023-02-21T05:57:30;9.57;;;0.90;;
10659;SDS011;5378;53.206;13.316;2023-02-21T06:00:25;3.33;;;0.90;;
10659;SDS011;5378;53.206;13.316;2023-02-21T06:03:13;5.30;;;0.60;;
10659;SDS011;5378;53.206;13.316;2023-02-21T06:06:00;9.83;;;1.60;;
10659;SDS011;5378;53.206;13.316;2023-02-21T06:08:48;8.50;;;1.13;;
10659;SDS011;5378;53.206;13.316;2023-02-21T06:11:36;10.50;;;1.23;;
10659;SDS011;5378;53.206;13.316;2023-02-21T06:14:24;4.43;;;0.60;;
10659;SDS011;5378;53.206;13.316;2023-02-21T06:17:13;3.07;;;0.90;;
10659;SDS011;5378;53.206;13.316;2023-02-21T06:20:00;5.23;;;1.00;;
10659;SDS011;5378;53.206;13.316;2023-02-21T06:22:47;2.10;;;0.83;;
10659;SDS011;5378;53.206;13.316;2023-02-21T06:25:34;11.23;;;3.30;;
10659;SDS011;5378;53.206;13.316;2023-02-21T06:28:22;4.83;;;0.80;;
10659;SDS011;5378;53.206;13.316;2023-02-21T06:31:13;4.57;;;1.20;;
10659;SDS011;5378;53.206;13.316;2023-02-21T06:34:03;7.20;;;1.20;;
10659;SDS011;5378;53.206;13.316;2023-02-21T06:36:50;2.03;;;0.90;;
10659;SDS011;5378;53.206;13.316;2023-02-21T06:39:38;5.40;;;0.97;;
10659;SDS011;5378;53.206;13.316;2023-02-21T06:42:25;4.03;;;0.83;;
10659;SDS011;5378;53.206;13.316;2023-02-21T06:45:12;14.93;;;1.30;;
10659;SDS011;5378;53.206;13.316;2023-02-21T06:47:59;11.53;;;0.80;;
10659;SDS011;5378;53.206;13.316;2023-02-21T06:50:48;7.87;;;1.20;;
10659;SDS011;5378;53.206;13.316;2023-02-21T06:53:35;9.10;;;1.67;;
10659;SDS011;5378;53.206;13.316;2023-02-21T06:56:22;12.50;;;2.00;;
10659;SDS011;5378;53.206;13.316;2023-02-21T06:59:09;7.67;;;0.80;;
10659;SDS011;5378;53.206;13.316;2023-02-21T07:01:56;6.13;;;1.47;;
10659;SDS011;5378;53.206;13.316;2023-02-21T07:04:44;4.17;;;0.70;;
10659;SDS011;5378;53.206;13.316;2023-02-21T07:07:32;11.80;;;1.20;;
10659;SDS011;5378;53.206;13.316;2023-02-21T07:10:20;10.73;;;1.77;;
10659;SDS011;5378;53.206;13.316;2023-02-21T07:13:07;5.30;;;1.10;;
10659;SDS011;5378;53.206;13.316;2023-02-21T07:15:53;5.80;;;0.90;;
10659;SDS011;5378;53.206;13.316;2023-02-21T07:18:41;2.70;;;0.83;;
10659;SDS011;5378;53.206;13.316;2023-02-21T07:21:28;26.57;;;2.83;;
10659;SDS011;5378;53.206;13.316;2023-02-21T07:24:17;16.20;;;4.73;;
10659;SDS011;5378;53.206;13.316;2023-02-21T07:27:04;13.93;;;3.30;;
10659;SDS011;5378;53.206;13.316;2023-02-21T07:29:51;9.80;;;1.63;;
10659;SDS011;5378;53.206;13.316;2023-02-21T07:32:38;10.90;;;1.30;;
10659;SDS011;5378;53.206;13.316;2023-02-21T07:35:25;8.43;;;1.80;;
10659;SDS011;5378;53.206;13.316;2023-02-21T07:38:18;6.67;;;1.60;;
10659;SDS011;5378;53.206;13.316;2023-02-21T07:41:07;6.43;;;1.33;;
10659;SDS011;5378;53.206;13.316;2023-02-21T07:43:54;11.13;;;1.40;;
10659;SDS011;5378;53.206;13.316;2023-02-21T07:46:41;8.10;;;1.37;;
10659;SDS011;5378;53.206;13.316;2023-02-21T07:49:31;9.83;;;1.60;;
10659;SDS011;5378;53.206;13.316;2023-02-21T07:52:22;9.93;;;1.80;;
10659;SDS011;5378;53.206;13.316;2023-02-21T07:55:10;16.00;;;2.33;;
10659;SDS011;5378;53.206;13.316;2023-02-21T07:57:59;16.30;;;1.97;;
10659;SDS011;5378;53.206;13.316;2023-02-21T08:00:46;9.47;;;1.57;;
10659;SDS011;5378;53.206;13.316;2023-02-21T08:03:33;4.23;;;1.83;;
10659;SDS011;5378;53.206;13.316;2023-02-21T08:06:22;13.27;;;2.00;;
10659;SDS011;5378;53.206;13.316;2023-02-21T08:09:09;8.53;;;1.70;;
10659;SDS011;5378;53.206;13.316;2023-02-21T08:11:56;5.10;;;1.33;;
10659;SDS011;5378;53.206;13.316;2023-02-21T08:14:45;2.20;;;1.00;;
10659;SDS011;5378;53.206;13.316;2023-02-21T08:17:32;6.77;;;1.60;;
10659;SDS011;5378;53.206;13.316;2023-02-21T08:20:19;17.90;;;1.87;;
10659;SDS011;5378;53.206;13.316;2023-02-21T08:23:06;6.07;;;1.80;;
10659;SDS011;5378;53.206;13.316;2023-02-21T08:25:53;17.03;;;2.13;;
10659;SDS011;5378;53.206;13.316;2023-02-21T08:28:40;14.67;;;2.40;;
10659;SDS011;5378;53.206;13.316;2023-02-21T08:31:28;9.20;;;1.73;;
10659;SDS011;5378;53.206;13.316;2023-02-21T08:34:16;7.37;;;1.87;;
10659;SDS011;5378;53.206;13.316;2023-02-21T08:37:03;13.97;;;2.07;;
10659;SDS011;5378;53.206;13.316;2023-02-21T08:39:51;13.73;;;1.83;;
10659;SDS011;5378;53.206;13.316;2023-02-21T08:42:38;4.23;;;1.50;;
10659;SDS011;5378;53.206;13.316;2023-02-21T08:45:27;13.33;;;2.23;;
10659;SDS011;5378;53.206;13.316;2023-02-21T08:48:16;20.80;;;3.00;;
10659;SDS011;5378;53.206;13.316;2023-02-21T08:51:04;7.90;;;1.93;;
10659;SDS011;5378;53.206;13.316;2023-02-21T08:53:51;18.33;;;2.43;;
10659;SDS011;5378;53.206;13.316;2023-02-21T08:56:38;14.93;;;2.60;;
10659;SDS011;5378;53.206;13.316;2023-02-21T08:59:25;6.83;;;1.13;;
10659;SDS011;5378;53.206;13.316;2023-02-21T09:02:15;22.20;;;2.67;;
10659;SDS011;5378;53.206;13.316;2023-02-21T09:05:04;15.37;;;1.83;;
10659;SDS011;5378;53.206;13.316;2023-02-21T09:07:53;22.07;;;2.67;;
10659;SDS011;5378;53.206;13.316;2023-02-21T09:10:43;14.47;;;1.80;;
10659;SDS011;5378;53.206;13.316;2023-02-21T09:13:31;12.97;;;1.63;;
10659;SDS011;5378;53.206;13.316;2023-02-21T09:16:19;10.17;;;2.20;;
10659;SDS011;5378;53.206;13.316;2023-02-21T09:19:06;14.03;;;1.90;;
10659;SDS011;5378;53.206;13.316;2023-02-21T09:21:54;10.10;;;1.43;;
10659;SDS011;5378;53.206;13.316;2023-02-21T09:24:42;14.17;;;2.33;;
10659;SDS011;5378;53.206;13.316;2023-02-21T09:27:29;20.63;;;2.37;;
10659;SDS011;5378;53.206;13.316;2023-02-21T09:30:22;10.43;;;2.20;;
10659;SDS011;5378;53.206;13.316;2023-02-21T09:33:11;11.33;;;1.80;;
10659;SDS011;5378;53.206;13.316;2023-02-21T09:35:59;15.37;;;2.80;;
10659;SDS011;5378;53.206;13.316;2023-02-21T09:38:48;12.83;;;2.33;;
10659;SDS011;5378;53.206;13.316;2023-02-21T09:41:36;22.80;;;2.40;;
10659;SDS011;5378;53.206;13.316;2023-02-21T09:44:24;13.77;;;2.07;;
10659;SDS011;5378;53.206;13.316;2023-02-21T09:47:14;11.27;;;1.70;;
10659;SDS011;5378;53.206;13.316;2023-02-21T09:50:10;11.17;;;1.90;;
10659;SDS011;5378;53.206;13.316;2023-02-21T09:52:59;24.57;;;4.30;;
10659;SDS011;5378;53.206;13.316;2023-02-21T09:55:48;19.63;;;2.57;;
10659;SDS011;5378;53.206;13.316;2023-02-21T09:58:37;29.07;;;4.10;;
10659;SDS011;5378;53.206;13.316;2023-02-21T10:01:41;16.83;;;2.90;;
10659;SDS011;5378;53.206;13.316;2023-02-21T10:04:39;10.07;;;1.77;;
10659;SDS011;5378;53.206;13.316;2023-02-21T10:07:41;10.50;;;2.20;;
10659;SDS011;5378;53.206;13.316;2023-02-21T10:10:38;9.63;;;1.73;;
10659;SDS011;5378;53.206;13.316;2023-02-21T10:13:36;4.90;;;1.67;;
10659;SDS011;5378;53.206;13.316;2023-02-21T10:16:27;10.43;;;1.57;;
10659;SDS011;5378;53.206;13.316;2023-02-21T10:19:17;16.53;;;2.17;;
10659;SDS011;5378;53.206;13.316;2023-02-21T10:22:12;12.70;;;2.60;;
10659;SDS011;5378;53.206;13.316;2023-02-21T10:25:07;16.33;;;2.33;;
10659;SDS011;5378;53.206;13.316;2023-02-21T10:28:07;12.00;;;3.47;;
10659;SDS011;5378;53.206;13.316;2023-02-21T10:31:02;14.23;;;3.60;;
10659;SDS011;5378;53.206;13.316;2023-02-21T10:33:53;11.57;;;2.20;;
10659;SDS011;5378;53.206;13.316;2023-02-21T10:36:40;7.90;;;1.80;;
10659;SDS011;5378;53.206;13.316;2023-02-21T10:39:29;11.53;;;1.63;;
10659;SDS011;5378;53.206;13.316;2023-02-21T10:42:24;16.83;;;1.90;;
10659;SDS011;5378;53.206;13.316;2023-02-21T10:45:14;7.13;;;2.00;;
10659;SDS011;5378;53.206;13.316;2023-02-21T10:48:05;16.63;;;2.67;;
10659;SDS011;5378;53.206;13.316;2023-02-21T10:51:03;13.30;;;1.60;;
10659;SDS011;5378;53.206;13.316;2023-02-21T10:53:52;12.10;;;2.00;;
10659;SDS011;5378;53.206;13.316;2023-02-21T10:56:39;8.73;;;1.80;;
10659;SDS011;5378;53.206;13.316;2023-02-21T10:59:27;18.33;;;2.53;;
10659;SDS011;5378;53.206;13.316;2023-02-21T11:02:25;12.47;;;2.43;;
10659;SDS011;5378;53.206;13.316;2023-02-21T11:05:18;13.40;;;2.57;;
10659;SDS011;5378;53.206;13.316;2023-02-21T11:08:08;12.20;;;2.20;;
10659;SDS011;5378;53.206;13.316;2023-02-21T11:10:55;14.53;;;2.30;;
10659;SDS011;5378;53.206;13.316;2023-02-21T11:13:44;12.20;;;1.90;;
10659;SDS011;5378;53.206;13.316;2023-02-21T11:16:31;12.53;;;2.13;;
10659;SDS011;5378;53.206;13.316;2023-02-21T11:19:19;22.87;;;2.07;;
10659;SDS011;5378;53.206;13.316;2023-02-21T11:22:07;17.27;;;2.47;;
10659;SDS011;5378;53.206;13.316;2023-02-21T11:24:59;14.73;;;2.07;;
10659;SDS011;5378;53.206;13.316;2023-02-21T11:28:02;14.70;;;2.30;;
10659;SDS011;5378;53.206;13.316;2023-02-21T11:31:03;10.53;;;2.33;;
10659;SDS011;5378;53.206;13.316;2023-02-21T11:33:54;5.23;;;2.03;;
10659;SDS011;5378;53.206;13.316;2023-02-21T11:36:45;21.87;;;3.00;;
10659;SDS011;5378;53.206;13.316;2023-02-21T11:39:35;11.10;;;1.70;;
10659;SDS011;5378;53.206;13.316;2023-02-21T11:42:24;15.50;;;2.00;;
10659;SDS011;5378;53.206;13.316;2023-02-21T11:45:16;18.70;;;2.47;;
10659;SDS011;5378;53.206;13.316;2023-02-21T11:48:10;10.07;;;2.50;;
10659;SDS011;5378;53.206;13.316;2023-02-21T11:51:04;8.10;;;1.57;;
10659;SDS011;5378;53.206;13.316;2023-02-21T11:53:54;16.60;;;2.83;;
10659;SDS011;5378;53.206;13.316;2023-02-21T11:56:45;12.50;;;2.07;;
10659;SDS011;5378;53.206;13.316;2023-02-21T11:59:39;17.77;;;2.30;;
10659;SDS011;5378;53.206;13.316;2023-02-21T12:02:43;11.93;;;2.40;;
10659;SDS011;5378;53.206;13.316;2023-02-21T12:05:45;16.50;;;2.10;;
10659;SDS011;5378;53.206;13.316;2023-02-21T12:08:42;8.20;;;1.33;;
10659;SDS011;5378;53.206;13.316;2023-02-21T12:11:44;16.83;;;2.97;;
10659;SDS011;5378;53.206;13.316;2023-02-21T12:14:51;14.50;;;2.43;;
10659;SDS011;5378;53.206;13.316;2023-02-21T12:17:56;23.27;;;3.33;;
10659;SDS011;5378;53.206;13.316;2023-02-21T12:20:59;14.63;;;3.30;;
10659;SDS011;5378;53.206;13.316;2023-02-21T12:23:57;12.90;;;2.50;;
10659;SDS011;5378;53.206;13.316;2023-02-21T12:26:56;14.23;;;2.50;;
10659;SDS011;5378;53.206;13.316;2023-02-21T12:29:54;19.60;;;2.77;;
10659;SDS011;5378;53.206;13.316;2023-02-21T12:32:53;18.40;;;2.13;;
10659;SDS011;5378;53.206;13.316;2023-02-21T12:36:09;7.93;;;2.47;;
10659;SDS011;5378;53.206;13.316;2023-02-21T12:39:15;10.07;;;3.23;;
10659;SDS011;5378;53.206;13.316;2023-02-21T12:42:18;13.83;;;3.03;;
10659;SDS011;5378;53.206;13.316;2023-02-21T12:45:22;17.73;;;2.93;;
10659;SDS011;5378;53.206;13.316;2023-02-21T12:48:23;13.80;;;2.00;;
10659;SDS011;5378;53.206;13.316;2023-02-21T12:51:15;20.17;;;3.00;;
10659;SDS011;5378;53.206;13.316;2023-02-21T12:54:06;19.60;;;3.87;;
10659;SDS011;5378;53.206;13.316;2023-02-21T12:56:58;11.10;;;2.03;;
10659;SDS011;5378;53.206;13.316;2023-02-21T12:59:53;20.23;;;2.73;;
10659;SDS011;5378;53.206;13.316;2023-02-21T13:02:49;17.20;;;1.80;;
10659;SDS011;5378;53.206;13.316;2023-02-21T13:05:45;16.70;;;2.10;;
10659;SDS011;5378;53.206;13.316;2023-02-21T13:08:43;15.73;;;1.60;;
10659;SDS011;5378;53.206;13.316;2023-02-21T13:11:37;16.00;;;2.40;;
10659;SDS011;5378;53.206;13.316;2023-02-21T13:14:30;19.87;;;2.40;;
10659;SDS011;5378;53.206;13.316;2023-02-21T13:17:20;20.30;;;2.60;;
10659;SDS011;5378;53.206;13.316;2023-02-21T13:20:08;16.67;;;2.27;;
10659;SDS011;5378;53.206;13.316;2023-02-21T13:26:51;20.03;;;2.17;;
10659;SDS011;5378;53.206;13.316;2023-02-21T13:29:47;15.00;;;2.30;;
10659;SDS011;5378;53.206;13.316;2023-02-21T13:32:37;23.87;;;2.07;;
10659;SDS011;5378;53.206;13.316;2023-02-21T13:35:27;14.53;;;2.20;;
10659;SDS011;5378;53.206;13.316;2023-02-21T13:38:17;18.00;;;3.40;;
10659;SDS011;5378;53.206;13.316;2023-02-21T13:41:06;16.10;;;2.20;;
10659;SDS011;5378;53.206;13.316;2023-02-21T13:43:55;14.53;;;2.77;;
10659;SDS011;5378;53.206;13.316;2023-02-21T13:49:51;9.60;;;2.20;;
10659;SDS011;5378;53.206;13.316;2023-02-21T13:59:03;19.23;;;2.47;;
10659;SDS011;5378;53.206;13.316;2023-02-21T14:02:22;10.70;;;2.47;;
10659;SDS011;5378;53.206;13.316;2023-02-21T14:05:16;14.30;;;2.17;;
10659;SDS011;5378;53.206;13.316;2023-02-21T14:08:04;16.87;;;2.20;;
10659;SDS011;5378;53.206;13.316;2023-02-21T14:10:53;12.00;;;2.83;;
10659;SDS011;5378;53.206;13.316;2023-02-21T14:13:44;9.30;;;2.30;;
10659;SDS011;5378;53.206;13.316;2023-02-21T14:16:35;15.27;;;2.30;;
10659;SDS011;5378;53.206;13.316;2023-02-21T14:19:34;25.83;;;3.77;;
10659;SDS011;5378;53.206;13.316;2023-02-21T14:22:24;10.47;;;2.13;;
10659;SDS011;5378;53.206;13.316;2023-02-21T14:25:15;30.63;;;3.50;;
10659;SDS011;5378;53.206;13.316;2023-02-21T14:34:35;14.73;;;1.93;;
10659;SDS011;5378;53.206;13.316;2023-02-21T14:37:29;9.03;;;2.20;;
10659;SDS011;5378;53.206;13.316;2023-02-21T14:40:23;11.50;;;2.30;;
10659;SDS011;5378;53.206;13.316;2023-02-21T14:43:39;14.83;;;2.47;;
10659;SDS011;5378;53.206;13.316;2023-02-21T14:46:47;19.07;;;3.40;;
10659;SDS011;5378;53.206;13.316;2023-02-21T14:49:46;19.43;;;2.70;;
10659;SDS011;5378;53.206;13.316;2023-02-21T14:56:26;19.67;;;2.87;;
10659;SDS011;5378;53.206;13.316;2023-02-21T14:59:37;24.53;;;3.30;;
10659;SDS011;5378;53.206;13.316;2023-02-21T15:02:37;20.93;;;2.57;;
10659;SDS011;5378;53.206;13.316;2023-02-21T15:05:29;11.83;;;2.90;;
10659;SDS011;5378;53.206;13.316;2023-02-21T15:08:21;19.07;;;2.33;;
10659;SDS011;5378;53.206;13.316;2023-02-21T15:11:16;25.13;;;3.07;;
10659;SDS011;5378;53.206;13.316;2023-02-21T15:14:11;28.87;;;2.77;;
10659;SDS011;5378;53.206;13.316;2023-02-21T15:17:11;14.47;;;2.70;;
10659;SDS011;5378;53.206;13.316;2023-02-21T15:20:03;6.63;;;1.80;;
10659;SDS011;5378;53.206;13.316;2023-02-21T15:22:59;22.10;;;2.30;;
10659;SDS011;5378;53.206;13.316;2023-02-21T15:25:52;20.40;;;1.70;;
10659;SDS011;5378;53.206;13.316;2023-02-21T15:28:39;22.53;;;3.23;;
10659;SDS011;5378;53.206;13.316;2023-02-21T15:31:29;18.63;;;1.93;;
10659;SDS011;5378;53.206;13.316;2023-02-21T15:34:19;18.77;;;2.30;;
10659;SDS011;5378;53.206;13.316;2023-02-21T15:37:11;36.03;;;3.50;;
10659;SDS011;5378;53.206;13.316;2023-02-21T15:40:03;17.10;;;3.20;;
10659;SDS011;5378;53.206;13.316;2023-02-21T15:42:56;23.27;;;3.60;;
10659;SDS011;5378;53.206;13.316;2023-02-21T15:45:43;19.13;;;2.87;;
10659;SDS011;5378;53.206;13.316;2023-02-21T15:48:37;16.43;;;2.63;;
10659;SDS011;5378;53.206;13.316;2023-02-21T15:51:24;12.70;;;2.30;;
10659;SDS011;5378;53.206;13.316;2023-02-21T15:54:22;6.40;;;1.37;;
10659;SDS011;5378;53.206;13.316;2023-02-21T15:57:19;24.23;;;2.43;;
10659;SDS011;5378;53.206;13.316;2023-02-21T16:00:16;21.20;;;2.97;;
10659;SDS011;5378;53.206;13.316;2023-02-21T16:03:30;13.47;;;2.40;;
10659;SDS011;5378;53.206;13.316;2023-02-21T16:06:21;13.97;;;2.43;;
10659;SDS011;5378;53.206;13.316;2023-02-21T16:09:19;10.33;;;1.97;;
10659;SDS011;5378;53.206;13.316;2023-02-21T16:12:17;10.23;;;1.87;;
10659;SDS011;5378;53.206;13.316;2023-02-21T16:15:18;9.77;;;2.10;;
10659;SDS011;5378;53.206;13.316;2023-02-21T16:18:14;17.30;;;2.50;;
10659;SDS011;5378;53.206;13.316;2023-02-21T16:21:05;14.77;;;2.97;;
10659;SDS011;5378;53.206;13.316;2023-02-21T16:23:55;37.70;;;3.30;;
10659;SDS011;5378;53.206;13.316;2023-02-21T16:26:42;16.73;;;2.67;;
10659;SDS011;5378;53.206;13.316;2023-02-21T16:29:48;22.83;;;2.40;;
10659;SDS011;5378;53.206;13.316;2023-02-21T16:32:35;19.77;;;2.70;;
10659;SDS011;5378;53.206;13.316;2023-02-21T16:35:24;7.10;;;1.73;;
10659;SDS011;5378;53.206;13.316;2023-02-21T16:38:13;20.17;;;2.60;;
10659;SDS011;5378;53.206;13.316;2023-02-21T16:41:02;14.60;;;2.50;;
10659;SDS011;5378;53.206;13.316;2023-02-21T16:43:49;9.63;;;2.63;;
10659;SDS011;5378;53.206;13.316;2023-02-21T16:46:37;27.13;;;2.20;;
10659;SDS011;5378;53.206;13.316;2023-02-21T16:49:24;13.77;;;2.27;;
10659;SDS011;5378;53.206;13.316;2023-02-21T16:52:12;27.60;;;2.60;;
10659;SDS011;5378;53.206;13.316;2023-02-21T16:55:00;8.00;;;2.97;;
10659;SDS011;5378;53.206;13.316;2023-02-21T16:57:49;17.00;;;2.87;;
10659;SDS011;5378;53.206;13.316;2023-02-21T17:00:39;16.60;;;3.07;;
10659;SDS011;5378;53.206;13.316;2023-02-21T17:03:26;12.10;;;2.27;;
10659;SDS011;5378;53.206;13.316;2023-02-21T17:06:14;12.60;;;2.67;;
10659;SDS011;5378;53.206;13.316;2023-02-21T17:09:03;21.70;;;3.93;;
10659;SDS011;5378;53.206;13.316;2023-02-21T17:11:50;18.43;;;2.43;;
10659;SDS011;5378;53.206;13.316;2023-02-21T17:14:38;38.67;;;3.13;;
10659;SDS011;5378;53.206;13.316;2023-02-21T17:17:25;14.37;;;3.00;;
10659;SDS011;5378;53.206;13.316;2023-02-21T17:20:13;10.83;;;2.47;;
10659;SDS011;5378;53.206;13.316;2023-02-21T17:23:02;11.90;;;1.80;;
10659;SDS011;5378;53.206;13.316;2023-02-21T17:25:49;15.47;;;2.13;;
10659;SDS011;5378;53.206;13.316;2023-02-21T17:28:36;22.40;;;2.30;;
10659;SDS011;5378;53.206;13.316;2023-02-21T17:31:25;28.70;;;2.60;;
10659;SDS011;5378;53.206;13.316;2023-02-21T17:34:12;8.53;;;1.63;;
10659;SDS011;5378;53.206;13.316;2023-02-21T17:37:00;4.70;;;2.13;;
10659;SDS011;5378;53.206;13.316;2023-02-21T17:39:50;15.93;;;1.87;;
10659;SDS011;5378;53.206;13.316;2023-02-21T17:42:38;19.77;;;3.07;;
10659;SDS011;5378;53.206;13.316;2023-02-21T17:45:25;10.03;;;1.77;;